sensor_id;sensor_type;location;lat;lon;timestamp;P1;durP1;ratioP1;P2;durP2;ratioP2
75823;SDS011;64457;51.976;9.834;2022-10-17T20:09:23;15.57;;;4.67;;
75823;SDS011;64457;51.976;9.834;2022-10-17T20:11:51;16.33;;;4.63;;
75823;SDS011;64457;51.976;9.834;2022-10-17T20:14:18;13.07;;;4.90;;
75823;SDS011;64457;51.976;9.834;2022-10-17T20:16:45;13.13;;;5.07;;
75823;SDS011;64457;51.976;9.834;2022-10-17T20:19:16;13.30;;;5.57;;
75823;SDS011;64457;51.976;9.834;2022-10-17T20:21:43;17.13;;;5.50;;
75823;SDS011;64457;51.976;9.834;2022-10-17T20:24:11;13.20;;;5.43;;
75823;SDS011;64457;51.976;9.834;2022-10-17T20:26:41;17.33;;;5.60;;
75823;SDS011;64457;51.976;9.834;2022-10-17T20:29:11;15.90;;;5.07;;
75823;SDS011;64457;51.976;9.834;2022-10-17T20:31:40;17.33;;;5.43;;
75823;SDS011;64457;51.976;9.834;2022-10-17T20:34:10;11.47;;;5.20;;
75823;SDS011;64457;51.976;9.834;2022-10-17T20:36:39;13.63;;;5.40;;
75823;SDS011;64457;51.976;9.834;2022-10-17T20:39:07;13.17;;;5.50;;
75823;SDS011;64457;51.976;9.834;2022-10-17T20:41:35;15.60;;;5.20;;
75823;SDS011;64457;51.976;9.834;2022-10-17T20:44:03;16.73;;;5.93;;
75823;SDS011;64457;51.976;9.834;2022-10-17T20:46:32;17.00;;;7.87;;
75823;SDS011;64457;51.976;9.834;2022-10-17T20:48:59;15.87;;;6.77;;
75823;SDS011;64457;51.976;9.834;2022-10-17T20:51:26;17.40;;;6.57;;
75823;SDS011;64457;51.976;9.834;2022-10-17T20:53:53;20.80;;;7.57;;
75823;SDS011;64457;51.976;9.834;2022-10-17T20:56:21;16.00;;;7.13;;
75823;SDS011;64457;51.976;9.834;2022-10-17T20:58:50;20.60;;;7.83;;
75823;SDS011;64457;51.976;9.834;2022-10-17T21:01:19;20.33;;;9.97;;
75823;SDS011;64457;51.976;9.834;2022-10-17T21:03:47;15.23;;;7.53;;
75823;SDS011;64457;51.976;9.834;2022-10-17T21:06:14;18.03;;;7.40;;
75823;SDS011;64457;51.976;9.834;2022-10-17T21:08:42;18.60;;;7.93;;
75823;SDS011;64457;51.976;9.834;2022-10-17T21:11:10;18.93;;;8.57;;
75823;SDS011;64457;51.976;9.834;2022-10-17T21:13:38;15.67;;;8.37;;
75823;SDS011;64457;51.976;9.834;2022-10-17T21:16:06;22.23;;;9.53;;
75823;SDS011;64457;51.976;9.834;2022-10-17T21:18:36;18.90;;;9.53;;
75823;SDS011;64457;51.976;9.834;2022-10-17T21:21:10;18.93;;;9.00;;
75823;SDS011;64457;51.976;9.834;2022-10-17T21:23:40;15.77;;;8.50;;
75823;SDS011;64457;51.976;9.834;2022-10-17T21:26:08;18.70;;;9.27;;
75823;SDS011;64457;51.976;9.834;2022-10-17T21:28:36;32.00;;;16.10;;
75823;SDS011;64457;51.976;9.834;2022-10-17T21:31:07;20.40;;;12.13;;
75823;SDS011;64457;51.976;9.834;2022-10-17T21:33:37;26.13;;;10.90;;
75823;SDS011;64457;51.976;9.834;2022-10-17T21:36:05;20.97;;;10.93;;
75823;SDS011;64457;51.976;9.834;2022-10-17T21:38:33;20.97;;;10.80;;
75823;SDS011;64457;51.976;9.834;2022-10-17T21:41:01;24.40;;;10.07;;
75823;SDS011;64457;51.976;9.834;2022-10-17T21:43:29;18.00;;;10.33;;
75823;SDS011;64457;51.976;9.834;2022-10-17T21:45:59;18.80;;;9.83;;
75823;SDS011;64457;51.976;9.834;2022-10-17T21:48:28;21.93;;;11.20;;
75823;SDS011;64457;51.976;9.834;2022-10-17T21:50:57;17.50;;;11.10;;
75823;SDS011;64457;51.976;9.834;2022-10-17T21:53:25;21.97;;;11.47;;
75823;SDS011;64457;51.976;9.834;2022-10-17T21:55:52;27.57;;;13.23;;
75823;SDS011;64457;51.976;9.834;2022-10-17T21:58:19;21.90;;;13.03;;
75823;SDS011;64457;51.976;9.834;2022-10-17T22:00:46;21.60;;;13.27;;
75823;SDS011;64457;51.976;9.834;2022-10-17T22:03:14;20.67;;;13.13;;
75823;SDS011;64457;51.976;9.834;2022-10-17T22:05:42;25.23;;;14.50;;
75823;SDS011;64457;51.976;9.834;2022-10-17T22:08:11;21.00;;;13.10;;
75823;SDS011;64457;51.976;9.834;2022-10-17T22:10:38;24.33;;;12.23;;
75823;SDS011;64457;51.976;9.834;2022-10-17T22:13:06;22.30;;;12.73;;
75823;SDS011;64457;51.976;9.834;2022-10-17T22:15:33;21.70;;;12.70;;
75823;SDS011;64457;51.976;9.834;2022-10-17T22:18:00;34.00;;;12.03;;
75823;SDS011;64457;51.976;9.834;2022-10-17T22:20:27;19.60;;;11.87;;
75823;SDS011;64457;51.976;9.834;2022-10-17T22:22:54;21.70;;;13.70;;
75823;SDS011;64457;51.976;9.834;2022-10-17T22:25:22;19.90;;;12.30;;
75823;SDS011;64457;51.976;9.834;2022-10-17T22:27:49;22.70;;;11.70;;
75823;SDS011;64457;51.976;9.834;2022-10-17T22:30:17;22.03;;;13.27;;
75823;SDS011;64457;51.976;9.834;2022-10-17T22:32:44;28.67;;;14.03;;
75823;SDS011;64457;51.976;9.834;2022-10-17T22:35:11;25.03;;;13.57;;
75823;SDS011;64457;51.976;9.834;2022-10-17T22:37:38;25.73;;;13.57;;
75823;SDS011;64457;51.976;9.834;2022-10-17T22:40:05;25.23;;;13.83;;
75823;SDS011;64457;51.976;9.834;2022-10-17T22:42:34;25.57;;;14.30;;
75823;SDS011;64457;51.976;9.834;2022-10-17T22:45:02;23.20;;;14.30;;
75823;SDS011;64457;51.976;9.834;2022-10-17T22:47:29;28.47;;;16.20;;
75823;SDS011;64457;51.976;9.834;2022-10-17T22:49:56;29.07;;;15.10;;
75823;SDS011;64457;51.976;9.834;2022-10-17T22:52:23;30.10;;;16.70;;
75823;SDS011;64457;51.976;9.834;2022-10-17T22:54:50;29.03;;;16.70;;
75823;SDS011;64457;51.976;9.834;2022-10-17T22:57:17;31.60;;;17.10;;
75823;SDS011;64457;51.976;9.834;2022-10-17T22:59:45;30.10;;;17.70;;
75823;SDS011;64457;51.976;9.834;2022-10-17T23:02:12;29.30;;;17.17;;
75823;SDS011;64457;51.976;9.834;2022-10-17T23:04:39;30.70;;;17.73;;
75823;SDS011;64457;51.976;9.834;2022-10-17T23:07:07;26.33;;;15.80;;
75823;SDS011;64457;51.976;9.834;2022-10-17T23:09:38;29.73;;;15.40;;
75823;SDS011;64457;51.976;9.834;2022-10-17T23:12:05;29.10;;;16.47;;
75823;SDS011;64457;51.976;9.834;2022-10-17T23:14:32;30.10;;;17.50;;
75823;SDS011;64457;51.976;9.834;2022-10-17T23:17:03;30.70;;;18.30;;
75823;SDS011;64457;51.976;9.834;2022-10-17T23:19:31;35.20;;;19.33;;
75823;SDS011;64457;51.976;9.834;2022-10-17T23:21:58;33.07;;;18.80;;
75823;SDS011;64457;51.976;9.834;2022-10-17T23:24:26;30.30;;;18.77;;
75823;SDS011;64457;51.976;9.834;2022-10-17T23:26:53;28.63;;;17.50;;
75823;SDS011;64457;51.976;9.834;2022-10-17T23:29:20;30.47;;;18.33;;
75823;SDS011;64457;51.976;9.834;2022-10-17T23:31:48;29.17;;;17.67;;
75823;SDS011;64457;51.976;9.834;2022-10-17T23:34:16;31.30;;;18.17;;
75823;SDS011;64457;51.976;9.834;2022-10-17T23:36:44;32.87;;;18.20;;
75823;SDS011;64457;51.976;9.834;2022-10-17T23:39:11;41.37;;;19.10;;
75823;SDS011;64457;51.976;9.834;2022-10-17T23:41:38;32.23;;;18.00;;
75823;SDS011;64457;51.976;9.834;2022-10-17T23:44:05;34.60;;;19.07;;
75823;SDS011;64457;51.976;9.834;2022-10-17T23:46:32;31.10;;;19.00;;
75823;SDS011;64457;51.976;9.834;2022-10-17T23:48:59;35.30;;;19.83;;
75823;SDS011;64457;51.976;9.834;2022-10-17T23:51:27;35.40;;;19.80;;
75823;SDS011;64457;51.976;9.834;2022-10-17T23:53:55;33.03;;;18.50;;
75823;SDS011;64457;51.976;9.834;2022-10-17T23:56:29;38.23;;;20.10;;
75823;SDS011;64457;51.976;9.834;2022-10-17T23:59:05;30.10;;;18.60;;
